Bon Accord, Canada
Current Conditions -  °F | °C
As of 7:00 PM on Friday 24 Oct 2014 (Local Time) from CYED Reporting Station
Scattered Clouds Scattered Clouds  
Wind Chill: 38°   Ceiling: Unl
Heat Index: 41°   Visibility: 9mi
Dew Point: 21°   Wind: 5mph
Humidity: 45%   Direction: 280°W
Pressure: 29.89"   Gusts: NA
Location:  53.83°N, 113.42°W
Report Text: CYED 250100Z AUTO 28004KT 9SM SCT075 05/M06 A2989 RMK SLP147
Loading
Personal Weather Stations






























Interactive Weather Map
Tropical Storm Tracking
New forecast layout! Learn more

10-Day Weather Forecast

Advertisements
Track Severe Weather on mobile